createdAt,value
2018-08-19T00:00:38.794Z,99.26
2018-08-19T00:01:38.364Z,99.99
2018-08-19T00:02:38.396Z,99.99
2018-08-19T00:03:38.360Z,99.97
2018-08-19T00:04:38.422Z,99.97
2018-08-19T00:05:38.322Z,99.87
2018-08-19T00:06:38.321Z,99.36
2018-08-19T00:07:38.303Z,99.66
2018-08-19T00:08:38.284Z,99.77
2018-08-19T00:09:38.271Z,99.46
2018-08-19T00:10:38.258Z,99.66
2018-08-19T00:11:38.273Z,99.56
2018-08-19T00:12:38.255Z,99.16
2018-08-19T00:13:38.229Z,98.85
2018-08-19T00:14:38.223Z,99.16
2018-08-19T00:15:38.213Z,99.26
2018-08-19T00:16:38.223Z,98.65
2018-08-19T00:17:38.183Z,99.26
2018-08-19T00:18:38.199Z,98.80
2018-08-19T00:19:38.158Z,99.41
2018-08-19T00:20:38.166Z,98.70
2018-08-19T00:21:38.224Z,99.16
2018-08-19T00:22:38.151Z,98.70
2018-08-19T00:23:38.146Z,99.11
2018-08-19T00:24:38.107Z,98.60
2018-08-19T00:25:38.191Z,99.21
2018-08-19T00:26:38.088Z,98.30
2018-08-19T00:27:38.095Z,98.39
2018-08-19T00:28:38.562Z,99.01
2018-08-19T00:29:38.077Z,98.80
2018-08-19T00:30:38.037Z,98.19
2018-08-19T00:31:38.026Z,98.91
2018-08-19T00:32:38.132Z,98.80
2018-08-19T00:33:38.007Z,99.11
2018-08-19T00:34:38.148Z,99.11
2018-08-19T00:35:37.996Z,98.50
2018-08-19T00:36:38.098Z,98.50
2018-08-19T00:37:38.000Z,99.11
2018-08-19T00:38:38.056Z,99.01
2018-08-19T00:39:37.945Z,98.70
2018-08-19T00:40:37.930Z,98.65
2018-08-19T00:41:37.919Z,98.44
2018-08-19T00:42:37.956Z,98.85
2018-08-19T00:43:37.936Z,98.75
2018-08-19T00:44:37.927Z,98.95
2018-08-19T00:45:37.963Z,98.75
2018-08-19T00:46:37.941Z,98.75
2018-08-19T00:47:37.855Z,99.05
2018-08-19T00:48:37.861Z,99.11
2018-08-19T00:49:37.830Z,98.50
2018-08-19T00:50:37.816Z,98.39
2018-08-19T00:51:37.809Z,98.70
2018-08-19T00:52:37.830Z,98.25
2018-08-19T00:53:37.813Z,98.25
2018-08-19T00:54:37.782Z,98.91
2018-08-19T00:55:37.760Z,97.03
2018-08-19T00:56:37.751Z,97.38
2018-08-19T00:57:37.743Z,97.33
2018-08-19T00:58:37.734Z,97.33
2018-08-19T00:59:37.742Z,97.44
2018-08-19T01:00:37.710Z,96.83
2018-08-19T01:01:37.806Z,96.92
2018-08-19T01:02:37.728Z,97.64
2018-08-19T01:03:37.702Z,97.03
2018-08-19T01:04:37.682Z,96.83
2018-08-19T01:05:37.676Z,96.42
2018-08-19T01:06:37.682Z,96.62
2018-08-19T01:07:37.635Z,96.22
2018-08-19T01:08:37.620Z,96.37
2018-08-19T01:09:37.633Z,95.25
2018-08-19T01:10:37.596Z,95.46
2018-08-19T01:11:37.589Z,94.95
2018-08-19T01:12:37.581Z,95.10
2018-08-19T01:13:37.565Z,95.01
2018-08-19T01:14:37.608Z,94.70
2018-08-19T01:15:37.539Z,94.20
2018-08-19T01:16:37.531Z,94.09
2018-08-19T01:17:37.534Z,93.99
2018-08-19T01:18:37.514Z,94.40
2018-08-19T01:19:37.625Z,93.13
2018-08-19T01:20:37.526Z,94.09
2018-08-19T01:21:37.568Z,94.15
2018-08-19T01:22:37.477Z,94.20
2018-08-19T01:23:37.450Z,94.20
2018-08-19T01:24:37.474Z,94.09
2018-08-19T01:25:37.453Z,94.54
2018-08-19T01:26:37.424Z,94.64
2018-08-19T01:27:37.407Z,94.24
2018-08-19T01:28:37.398Z,95.15
2018-08-19T01:29:37.405Z,95.97
2018-08-19T01:30:37.471Z,95.97
2018-08-19T01:31:37.408Z,95.05
2018-08-19T01:32:37.356Z,95.15
2018-08-19T01:33:37.361Z,95.36
2018-08-19T01:34:37.328Z,95.36
2018-08-19T01:35:37.337Z,96.07
2018-08-19T01:36:37.309Z,95.25
2018-08-19T01:37:37.305Z,95.30
2018-08-19T01:38:37.290Z,95.91
2018-08-19T01:39:37.278Z,96.01
2018-08-19T01:40:37.296Z,96.22
2018-08-19T01:41:37.267Z,96.77
2018-08-19T01:42:37.259Z,96.42
2018-08-19T01:43:37.288Z,97.64
2018-08-19T01:44:37.226Z,97.48
2018-08-19T01:45:37.207Z,97.58
2018-08-19T01:46:37.224Z,97.28
2018-08-19T01:47:37.205Z,97.28
2018-08-19T01:48:37.174Z,97.38
2018-08-19T01:49:37.170Z,97.38
2018-08-19T01:50:37.168Z,98.03
2018-08-19T01:51:37.165Z,98.54
2018-08-19T01:52:37.239Z,98.75
2018-08-19T01:53:37.119Z,98.75
2018-08-19T01:54:37.150Z,98.75
2018-08-19T01:55:37.100Z,98.44
2018-08-19T01:56:37.104Z,98.54
2018-08-19T01:57:37.082Z,98.24
2018-08-19T01:58:37.071Z,98.44
2018-08-19T01:59:37.057Z,98.69
2018-08-19T02:00:37.067Z,98.49
2018-08-19T02:01:37.085Z,98.79
2018-08-19T02:02:37.026Z,99.20
2018-08-19T02:03:37.018Z,99.20
2018-08-19T02:04:37.595Z,98.75
2018-08-19T02:05:36.986Z,98.90
2018-08-19T02:06:37.048Z,99.20
2018-08-19T02:07:36.967Z,99.30
2018-08-19T02:08:37.127Z,99.61
2018-08-19T02:09:36.947Z,99.71
2018-08-19T02:10:36.946Z,99.61
2018-08-19T02:11:36.946Z,99.51
2018-08-19T02:12:36.917Z,99.30
2018-08-19T02:13:36.899Z,99.91
2018-08-19T02:14:36.897Z,99.51
2018-08-19T02:15:36.884Z,99.81
2018-08-19T02:16:36.894Z,99.51
2018-08-19T02:17:36.853Z,99.30
2018-08-19T02:18:36.844Z,99.91
2018-08-19T02:19:36.833Z,99.99
2018-08-19T02:20:36.848Z,99.91
2018-08-19T02:21:36.846Z,99.51
2018-08-19T02:22:36.804Z,99.61
2018-08-19T02:23:36.792Z,99.55
2018-08-19T02:24:36.788Z,99.51
2018-08-19T02:25:36.766Z,99.99
2018-08-19T02:26:36.756Z,99.99
2018-08-19T02:27:36.798Z,99.99
2018-08-19T02:28:36.740Z,99.99
2018-08-19T02:29:36.754Z,99.99
2018-08-19T02:30:36.714Z,99.99
2018-08-19T02:31:36.701Z,99.99
2018-08-19T02:32:36.708Z,99.99
2018-08-19T02:33:36.685Z,99.99
2018-08-19T02:34:36.670Z,99.99
2018-08-19T02:35:36.659Z,99.99
2018-08-19T02:36:36.650Z,99.91
2018-08-19T02:37:36.651Z,99.99
2018-08-19T02:38:36.624Z,99.99
2018-08-19T02:39:36.612Z,99.99
2018-08-19T02:40:36.599Z,99.91
2018-08-19T02:41:36.596Z,99.81
2018-08-19T02:42:36.600Z,99.71
2018-08-19T02:43:36.585Z,99.51
2018-08-19T02:44:36.562Z,99.46
2018-08-19T02:45:36.548Z,99.36
2018-08-19T02:46:36.535Z,99.46
2018-08-19T02:47:36.544Z,99.66
2018-08-19T02:48:36.517Z,99.87
2018-08-19T02:49:36.499Z,99.77
2018-08-19T02:50:36.492Z,99.77
2018-08-19T02:51:36.479Z,99.26
2018-08-19T02:52:36.485Z,98.30
2018-08-19T02:53:36.462Z,98.70
2018-08-19T02:54:36.448Z,98.39
2018-08-19T02:55:36.439Z,98.60
2018-08-19T02:56:36.430Z,97.99
2018-08-19T02:57:36.448Z,98.66
2018-08-19T02:58:36.403Z,98.50
2018-08-19T02:59:36.390Z,97.78
2018-08-19T03:00:36.379Z,97.99
2018-08-19T03:01:36.374Z,97.28
2018-08-19T03:02:36.360Z,97.17
2018-08-19T03:03:36.582Z,97.17
2018-08-19T03:04:36.332Z,97.58
2018-08-19T03:05:36.329Z,97.89
2018-08-19T03:06:36.347Z,98.30
2018-08-19T03:07:36.304Z,97.53
2018-08-19T03:08:36.314Z,97.64
2018-08-19T03:09:36.278Z,97.48
2018-08-19T03:10:36.348Z,97.28
2018-08-19T03:11:36.258Z,97.38
2018-08-19T03:12:36.245Z,97.58
2018-08-19T03:13:36.260Z,97.28
2018-08-19T03:14:36.258Z,97.99
2018-08-19T03:15:36.216Z,97.78
2018-08-19T03:16:36.207Z,97.17
2018-08-19T03:17:36.189Z,97.33
2018-08-19T03:18:36.205Z,97.38
2018-08-19T03:19:36.173Z,97.38
2018-08-19T03:20:36.163Z,97.38
2018-08-19T03:21:36.148Z,97.48
2018-08-19T03:22:36.195Z,97.69
2018-08-19T03:23:36.160Z,97.99
2018-08-19T03:24:36.120Z,98.30
2018-08-19T03:25:36.108Z,98.30
2018-08-19T03:26:36.094Z,98.30
2018-08-19T03:27:36.101Z,97.28
2018-08-19T03:28:36.105Z,97.48
2018-08-19T03:29:36.080Z,97.07
2018-08-19T03:30:36.048Z,97.17
2018-08-19T03:31:36.047Z,96.97
2018-08-19T03:32:36.183Z,96.52
2018-08-19T03:33:36.029Z,95.81
2018-08-19T03:34:36.212Z,95.70
2018-08-19T03:35:36.025Z,94.85
2018-08-19T03:36:35.980Z,95.56
2018-08-19T03:37:35.976Z,95.36
2018-08-19T03:38:36.067Z,95.97
2018-08-19T03:39:35.953Z,96.27
2018-08-19T03:40:36.008Z,95.25
2018-08-19T03:41:35.937Z,96.07
2018-08-19T03:42:36.268Z,95.46
2018-08-19T03:43:35.927Z,94.64
2018-08-19T03:44:35.891Z,94.79
2018-08-19T03:45:35.890Z,95.05
2018-08-19T03:46:35.926Z,94.04
2018-08-19T03:47:35.881Z,94.13
2018-08-19T03:48:35.878Z,94.04
2018-08-19T03:49:35.837Z,94.04
2018-08-19T03:50:35.826Z,94.13
2018-08-19T03:51:35.827Z,93.83
2018-08-19T03:52:35.839Z,94.13
2018-08-19T03:53:35.792Z,93.73
2018-08-19T03:54:35.809Z,93.43
2018-08-19T03:55:35.772Z,93.63
2018-08-19T03:56:35.762Z,93.43
2018-08-19T03:57:35.755Z,93.68
2018-08-19T03:58:35.741Z,93.93
2018-08-19T03:59:35.818Z,93.73
2018-08-19T04:00:35.771Z,94.13
2018-08-19T04:01:35.710Z,93.93
2018-08-19T04:02:35.842Z,93.63
2018-08-19T04:03:36.030Z,94.44
2018-08-19T04:04:35.963Z,94.54
2018-08-19T04:05:35.666Z,94.24
2018-08-19T04:06:35.684Z,94.69
2018-08-19T04:07:35.652Z,94.69
2018-08-19T04:08:35.685Z,95.30
2018-08-19T04:09:35.662Z,95.30
2018-08-19T04:10:36.510Z,95.40
2018-08-19T04:11:35.653Z,95.20
2018-08-19T04:12:36.112Z,94.93
2018-08-19T04:13:35.589Z,95.61
2018-08-19T04:14:35.984Z,95.54
2018-08-19T04:15:36.111Z,95.85
2018-08-19T04:16:35.607Z,95.00
2018-08-19T04:17:35.761Z,95.09
2018-08-19T04:18:35.544Z,94.48
2018-08-19T04:19:35.555Z,94.08
2018-08-19T04:20:35.644Z,94.44
2018-08-19T04:21:35.597Z,93.63
2018-08-19T04:22:35.823Z,93.32
2018-08-19T04:23:35.534Z,92.91
2018-08-19T04:24:35.468Z,93.02
2018-08-19T04:25:35.472Z,93.22
2018-08-19T04:26:36.097Z,93.22
2018-08-19T04:27:35.716Z,92.71
2018-08-19T04:28:35.436Z,92.67
2018-08-19T04:29:35.401Z,92.57
2018-08-19T04:30:35.475Z,92.47
2018-08-19T04:31:35.519Z,92.36
2018-08-19T04:32:35.456Z,92.36
2018-08-19T04:33:35.398Z,93.28
2018-08-19T04:34:35.426Z,92.47
2018-08-19T04:35:35.446Z,92.36
2018-08-19T04:36:35.557Z,92.67
2018-08-19T04:37:35.383Z,92.57
2018-08-19T04:38:35.321Z,92.77
2018-08-19T04:39:35.630Z,92.77
2018-08-19T04:40:35.365Z,93.48
2018-08-19T04:41:35.313Z,92.77
2018-08-19T04:42:35.263Z,92.77
2018-08-19T04:43:35.281Z,92.67
2018-08-19T04:44:35.240Z,92.06
2018-08-19T04:45:35.236Z,92.72
2018-08-19T04:46:35.520Z,92.63
2018-08-19T04:47:35.202Z,92.36
2018-08-19T04:48:35.295Z,92.16
2018-08-19T04:49:35.207Z,91.86
2018-08-19T04:50:35.180Z,92.67
2018-08-19T04:51:35.241Z,92.32
2018-08-19T04:52:35.184Z,91.86
2018-08-19T04:53:35.284Z,91.91
2018-08-19T04:54:35.251Z,91.71
2018-08-19T04:55:35.143Z,91.91
2018-08-19T04:56:35.478Z,92.02
2018-08-19T04:57:35.101Z,91.30
2018-08-19T04:58:35.131Z,92.12
2018-08-19T04:59:35.195Z,91.30
2018-08-19T05:00:35.091Z,91.10
2018-08-19T05:01:35.165Z,91.82
2018-08-19T05:02:35.241Z,91.91
2018-08-19T05:03:35.066Z,91.41
2018-08-19T05:04:35.070Z,91.30
2018-08-19T05:05:35.025Z,91.91
2018-08-19T05:06:35.238Z,91.71
2018-08-19T05:07:35.883Z,91.51
2018-08-19T05:08:35.022Z,91.20
2018-08-19T05:09:35.057Z,91.71
2018-08-19T05:10:34.966Z,91.77
2018-08-19T05:11:35.075Z,91.61
2018-08-19T05:12:34.943Z,92.02
2018-08-19T05:13:34.918Z,90.66
2018-08-19T05:14:35.340Z,90.86
2018-08-19T05:15:35.018Z,90.66
2018-08-19T05:16:34.961Z,90.66
2018-08-19T05:17:35.101Z,90.75
2018-08-19T05:18:35.088Z,90.81
2018-08-19T05:19:34.996Z,89.70
2018-08-19T05:20:34.905Z,89.50
2018-08-19T05:21:34.912Z,89.59
2018-08-19T05:22:35.108Z,89.59
2018-08-19T05:23:35.185Z,89.29
2018-08-19T05:24:34.838Z,89.39
2018-08-19T05:25:34.854Z,89.59
2018-08-19T05:26:34.818Z,88.89
2018-08-19T05:27:34.827Z,89.35
2018-08-19T05:28:34.845Z,88.75
2018-08-19T05:29:34.884Z,88.84
2018-08-19T05:30:34.925Z,88.54
2018-08-19T05:31:35.171Z,88.75
2018-08-19T05:32:34.764Z,89.25
2018-08-19T05:33:34.714Z,88.54
2018-08-19T05:34:34.819Z,89.35
2018-08-19T05:35:34.989Z,89.76
2018-08-19T05:36:34.719Z,89.04
2018-08-19T05:37:34.751Z,88.84
2018-08-19T05:38:34.720Z,89.35
2018-08-19T05:39:34.919Z,88.95
2018-08-19T05:40:34.631Z,88.60
2018-08-19T05:41:34.649Z,88.64
2018-08-19T05:42:34.624Z,89.21
2018-08-19T05:43:34.749Z,89.92
2018-08-19T05:44:34.684Z,89.41
2018-08-19T05:45:34.596Z,90.42
2018-08-19T05:46:34.556Z,90.62
2018-08-19T05:47:34.567Z,89.51
2018-08-19T05:48:34.537Z,91.34
2018-08-19T05:49:34.518Z,90.73
2018-08-19T05:50:34.507Z,89.57
2018-08-19T05:51:34.504Z,90.53
2018-08-19T05:52:34.517Z,90.69
2018-08-19T05:53:34.479Z,89.67
2018-08-19T05:54:34.469Z,88.96
2018-08-19T05:55:34.494Z,89.67
2018-08-19T05:56:34.446Z,90.69
2018-08-19T05:57:34.449Z,89.17
2018-08-19T05:58:34.422Z,88.86
2018-08-19T05:59:34.415Z,88.92
2018-08-19T06:00:34.433Z,88.01
2018-08-19T06:01:34.387Z,87.16
2018-08-19T06:02:34.400Z,86.96
2018-08-19T06:03:34.366Z,88.17
2018-08-19T06:04:34.498Z,86.45
2018-08-19T06:05:36.096Z,86.15
2018-08-19T06:06:34.835Z,86.82
2018-08-19T06:07:34.678Z,85.50
2018-08-19T06:08:34.356Z,84.85
2018-08-19T06:09:34.306Z,84.34
2018-08-19T06:10:34.320Z,84.20
2018-08-19T06:11:34.458Z,84.51
2018-08-19T06:12:34.292Z,83.40
2018-08-19T06:13:34.279Z,83.50
2018-08-19T06:14:34.272Z,83.86
2018-08-19T06:15:34.471Z,83.46
2018-08-19T06:16:34.818Z,83.36
2018-08-19T06:17:34.656Z,83.46
2018-08-19T06:18:34.248Z,84.27
2018-08-19T06:19:34.442Z,83.86
2018-08-19T06:20:34.242Z,84.47
2018-08-19T06:21:34.726Z,82.41
2018-08-19T06:22:34.958Z,83.86
2018-08-19T06:23:34.210Z,82.31
2018-08-19T06:24:34.169Z,84.23
2018-08-19T06:25:34.209Z,82.10
2018-08-19T06:26:34.334Z,81.30
2018-08-19T06:27:34.156Z,80.45
2018-08-19T06:28:34.171Z,81.46
2018-08-19T06:29:34.099Z,83.48
2018-08-19T06:30:34.088Z,82.51
2018-08-19T06:31:34.127Z,82.10
2018-08-19T06:32:34.248Z,80.05
2018-08-19T06:33:34.099Z,81.87
2018-08-19T06:34:34.170Z,80.65
2018-08-19T06:35:34.326Z,80.51
2018-08-19T06:36:34.113Z,82.23
2018-08-19T06:37:34.227Z,80.72
2018-08-19T06:38:34.083Z,79.50
2018-08-19T06:39:34.176Z,78.70
2018-08-19T06:40:33.977Z,78.50
2018-08-19T06:41:34.162Z,78.06
2018-08-19T06:42:34.118Z,77.45
2018-08-19T06:43:34.000Z,77.86
2018-08-19T06:44:33.916Z,79.06
2018-08-19T06:45:33.939Z,77.25
2018-08-19T06:46:33.969Z,76.54
2018-08-19T06:47:33.916Z,77.82
2018-08-19T06:48:34.074Z,78.63
2018-08-19T06:49:33.959Z,78.02
2018-08-19T06:50:33.873Z,77.31
2018-08-19T06:51:33.877Z,77.62
2018-08-19T06:52:34.179Z,76.81
2018-08-19T06:53:33.827Z,76.91
2018-08-19T06:54:34.026Z,77.62
2018-08-19T06:55:34.111Z,77.21
2018-08-19T06:56:33.787Z,77.62
2018-08-19T06:57:33.946Z,77.21
2018-08-19T06:58:33.945Z,76.71
2018-08-19T06:59:33.952Z,76.91
2018-08-19T07:00:33.768Z,77.31
2018-08-19T07:01:33.774Z,77.21
2018-08-19T07:02:33.895Z,78.49
2018-08-19T07:03:33.978Z,77.08
2018-08-19T07:04:33.725Z,77.88
2018-08-19T07:05:33.805Z,76.77
2018-08-19T07:06:34.382Z,76.67
2018-08-19T07:07:33.748Z,77.17
2018-08-19T07:08:33.767Z,75.96
2018-08-19T07:09:34.131Z,75.87
2018-08-19T07:10:33.748Z,75.76
2018-08-19T07:11:33.772Z,76.97
2018-08-19T07:12:33.679Z,75.56
2018-08-19T07:13:33.627Z,75.06
2018-08-19T07:14:33.697Z,76.57
2018-08-19T07:15:33.700Z,76.87
2018-08-19T07:16:33.778Z,75.96
2018-08-19T07:17:33.579Z,77.38
2018-08-19T07:18:33.635Z,75.46
2018-08-19T07:19:33.556Z,75.67
2018-08-19T07:20:33.652Z,75.96
2018-08-19T07:21:33.574Z,77.64
2018-08-19T07:22:33.542Z,75.36
2018-08-19T07:23:33.531Z,75.13
2018-08-19T07:24:33.659Z,75.63
2018-08-19T07:25:33.514Z,75.33
2018-08-19T07:26:33.473Z,75.63
2018-08-19T07:27:33.464Z,74.42
2018-08-19T07:28:33.471Z,74.69
2018-08-19T07:29:33.493Z,76.40
2018-08-19T07:30:33.512Z,74.29
2018-08-19T07:31:33.578Z,75.19
2018-08-19T07:32:33.414Z,73.28
2018-08-19T07:33:33.399Z,75.26
2018-08-19T07:34:33.588Z,75.29
2018-08-19T07:35:33.611Z,74.15
2018-08-19T07:36:33.875Z,74.95
2018-08-19T07:37:33.509Z,75.26
2018-08-19T07:38:33.332Z,75.76
2018-08-19T07:39:33.680Z,74.65
2018-08-19T07:40:33.675Z,73.65
2018-08-19T07:41:33.405Z,74.52
2018-08-19T07:42:33.321Z,72.10
2018-08-19T07:43:33.424Z,73.31
2018-08-19T07:44:33.766Z,73.41
2018-08-19T07:45:35.235Z,73.21
2018-08-19T07:46:33.666Z,72.47
2018-08-19T07:47:33.328Z,73.58
2018-08-19T07:48:33.220Z,73.38
2018-08-19T07:49:33.228Z,72.27
2018-08-19T07:50:33.284Z,72.67
2018-08-19T07:51:33.547Z,72.37
2018-08-19T07:52:33.273Z,71.77
2018-08-19T07:53:33.585Z,72.33
2018-08-19T07:54:33.166Z,74.58
2018-08-19T07:55:33.635Z,74.24
2018-08-19T07:56:33.141Z,72.24
2018-08-19T07:57:33.135Z,71.63
2018-08-19T07:58:33.150Z,69.99
2018-08-19T07:59:33.125Z,69.59
2018-08-19T08:00:33.132Z,68.59
2018-08-19T08:01:33.294Z,71.20
2018-08-19T08:02:33.307Z,69.39
2018-08-19T08:03:33.088Z,68.59
2018-08-19T08:04:33.393Z,68.29
2018-08-19T08:05:33.108Z,69.76
2018-08-19T08:06:33.033Z,68.35
2018-08-19T08:07:33.207Z,68.22
2018-08-19T08:08:33.045Z,69.56
2018-08-19T08:09:33.032Z,69.82
2018-08-19T08:10:33.626Z,68.35
2018-08-19T08:11:33.022Z,67.95
2018-08-19T08:12:33.104Z,68.25
2018-08-19T08:13:32.976Z,69.46
2018-08-19T08:14:33.021Z,70.83
2018-08-19T08:15:32.925Z,68.52
2018-08-19T08:16:32.932Z,69.39
2018-08-19T08:17:33.037Z,68.08
2018-08-19T08:18:32.900Z,67.18
2018-08-19T08:19:32.887Z,68.49
2018-08-19T08:20:33.039Z,67.15
2018-08-19T08:21:33.079Z,66.92
2018-08-19T08:22:32.901Z,64.22
2018-08-19T08:23:33.132Z,65.12
2018-08-19T08:24:33.093Z,67.32
2018-08-19T08:25:32.958Z,64.98
2018-08-19T08:26:32.994Z,65.39
2018-08-19T08:27:32.818Z,66.89
2018-08-19T08:28:32.802Z,64.39
2018-08-19T08:29:32.803Z,64.01
2018-08-19T08:30:32.785Z,65.12
2018-08-19T08:31:32.839Z,64.01
2018-08-19T08:32:32.933Z,65.55
2018-08-19T08:33:32.788Z,66.95
2018-08-19T08:34:32.719Z,65.45
2018-08-19T08:35:33.029Z,65.01
2018-08-19T08:36:32.718Z,64.65
2018-08-19T08:37:32.738Z,64.39
2018-08-19T08:38:33.002Z,63.81
2018-08-19T08:39:32.732Z,65.82
2018-08-19T08:40:33.004Z,65.52
2018-08-19T08:41:32.755Z,63.89
2018-08-19T08:42:32.645Z,63.95
2018-08-19T08:43:32.675Z,63.89
2018-08-19T08:44:32.689Z,63.75
2018-08-19T08:45:32.648Z,62.12
2018-08-19T08:46:32.625Z,62.25
2018-08-19T08:47:32.774Z,62.82
2018-08-19T08:48:32.597Z,63.92
2018-08-19T08:49:32.570Z,61.75
2018-08-19T08:50:32.558Z,62.88
2018-08-19T08:51:32.852Z,63.65
2018-08-19T08:52:32.593Z,62.28
2018-08-19T08:53:32.528Z,62.25
2018-08-19T08:54:32.512Z,61.62
2018-08-19T08:55:32.501Z,60.99
2018-08-19T08:56:32.650Z,62.09
2018-08-19T08:57:32.599Z,61.02
2018-08-19T08:58:32.464Z,62.15
2018-08-19T08:59:32.888Z,64.36
2018-08-19T09:00:32.512Z,64.49
2018-08-19T09:01:32.724Z,61.83
2018-08-19T09:02:32.456Z,59.21
2018-08-19T09:03:32.453Z,59.58
2018-08-19T09:04:32.546Z,60.68
2018-08-19T09:05:32.397Z,59.78
2018-08-19T09:06:32.403Z,60.93
2018-08-19T09:07:32.392Z,60.86
2018-08-19T09:08:32.382Z,60.36
2018-08-19T09:09:32.343Z,62.56
2018-08-19T09:10:32.429Z,61.93
2018-08-19T09:11:32.321Z,60.44
2018-08-19T09:12:32.315Z,58.81
2018-08-19T09:13:32.401Z,58.08
2018-08-19T09:14:32.379Z,58.28
2018-08-19T09:15:32.352Z,57.91
2018-08-19T09:16:32.344Z,59.81
2018-08-19T09:17:32.376Z,58.84
2018-08-19T09:18:32.321Z,61.04
2018-08-19T09:19:32.243Z,60.91
2018-08-19T09:20:32.268Z,59.64
2018-08-19T09:21:32.234Z,59.44
2018-08-19T09:22:32.214Z,58.94
2018-08-19T09:23:32.255Z,60.03
2018-08-19T09:24:32.475Z,59.53
2018-08-19T09:25:32.185Z,59.34
2018-08-19T09:26:32.190Z,59.97
2018-08-19T09:27:32.223Z,59.23
2018-08-19T09:28:32.255Z,60.11
2018-08-19T09:29:32.135Z,60.33
2018-08-19T09:30:32.252Z,59.83
2018-08-19T09:31:32.122Z,59.56
2018-08-19T09:32:32.113Z,61.16
2018-08-19T09:33:32.333Z,60.16
2018-08-19T09:34:32.226Z,58.76
2018-08-19T09:35:32.167Z,59.66
2018-08-19T09:36:32.136Z,59.77
2018-08-19T09:37:32.112Z,59.69
2018-08-19T09:38:32.707Z,60.82
2018-08-19T09:39:32.309Z,61.19
2018-08-19T09:40:32.027Z,61.40
2018-08-19T09:41:32.035Z,62.19
2018-08-19T09:42:32.011Z,59.19
2018-08-19T09:43:32.075Z,59.30
2018-08-19T09:44:31.992Z,59.69
2018-08-19T09:45:32.008Z,59.09
2018-08-19T09:46:31.993Z,59.69
2018-08-19T09:47:31.975Z,59.92
2018-08-19T09:48:32.119Z,60.89
2018-08-19T09:49:31.921Z,59.69
2018-08-19T09:50:31.916Z,60.96
2018-08-19T09:51:31.890Z,61.24
2018-08-19T09:52:31.923Z,61.43
2018-08-19T09:53:31.888Z,60.11
2018-08-19T09:54:31.939Z,58.81
2018-08-19T09:55:32.069Z,57.61
2018-08-19T09:56:31.944Z,57.78
2018-08-19T09:57:32.203Z,57.88
2018-08-19T09:58:31.958Z,57.51
2018-08-19T09:59:31.839Z,58.51
2018-08-19T10:00:31.942Z,59.51
2018-08-19T10:01:31.919Z,56.91
2018-08-19T10:02:31.779Z,57.61
2018-08-19T10:03:31.826Z,57.61
2018-08-19T10:04:31.931Z,59.70
2018-08-19T10:05:31.745Z,59.31
2018-08-19T10:06:31.928Z,59.58
2018-08-19T10:07:31.809Z,59.58
2018-08-19T10:08:31.747Z,58.08
2018-08-19T10:09:31.743Z,57.98
2018-08-19T10:10:31.687Z,59.05
2018-08-19T10:11:31.678Z,57.68
2018-08-19T10:12:31.672Z,57.78
2018-08-19T10:13:31.712Z,57.58
2018-08-19T10:14:31.666Z,59.18
2018-08-19T10:15:31.685Z,59.25
2018-08-19T10:16:31.651Z,56.63
2018-08-19T10:17:31.647Z,56.70
2018-08-19T10:18:31.630Z,58.87
2018-08-19T10:19:31.637Z,55.48
2018-08-19T10:20:31.672Z,55.18
2018-08-19T10:21:31.887Z,54.58
2018-08-19T10:22:31.564Z,57.17
2018-08-19T10:23:31.563Z,57.77
2018-08-19T10:24:31.539Z,56.65
2018-08-19T10:25:31.869Z,55.55
2018-08-19T10:26:31.536Z,54.66
2018-08-19T10:27:31.560Z,55.48
2018-08-19T10:28:31.498Z,55.91
2018-08-19T10:29:31.639Z,56.70
2018-08-19T10:30:31.795Z,57.73
2018-08-19T10:31:31.488Z,57.26
2018-08-19T10:32:31.498Z,57.26
2018-08-19T10:33:31.798Z,58.38
2018-08-19T10:34:31.510Z,57.18
2018-08-19T10:35:31.815Z,58.08
2018-08-19T10:36:31.524Z,57.78
2018-08-19T10:37:31.546Z,57.15
2018-08-19T10:38:31.596Z,57.65
2018-08-19T10:39:31.517Z,56.36
2018-08-19T10:40:31.493Z,58.08
2018-08-19T10:41:31.377Z,57.78
2018-08-19T10:42:31.373Z,58.25
2018-08-19T10:43:31.781Z,57.86
2018-08-19T10:44:31.329Z,57.43
2018-08-19T10:45:31.327Z,58.20
2018-08-19T10:46:31.751Z,57.03
2018-08-19T10:47:31.325Z,57.65
2018-08-19T10:48:31.281Z,60.52
2018-08-19T10:49:31.273Z,56.51
2018-08-19T10:50:31.280Z,59.00
2018-08-19T10:51:31.281Z,55.51
2018-08-19T10:52:31.241Z,56.27
2018-08-19T10:53:31.228Z,55.08
2018-08-19T10:54:31.214Z,55.18
2018-08-19T10:55:31.204Z,54.66
2018-08-19T10:56:31.215Z,54.33
2018-08-19T10:57:31.193Z,55.63
2018-08-19T10:58:31.270Z,56.89
2018-08-19T10:59:31.165Z,53.41
2018-08-19T11:00:31.158Z,52.51
2018-08-19T11:01:31.162Z,54.11
2018-08-19T11:02:31.125Z,54.03
2018-08-19T11:03:31.122Z,58.04
2018-08-19T11:04:31.116Z,56.82
2018-08-19T11:05:31.116Z,57.49
2018-08-19T11:06:31.174Z,54.33
2018-08-19T11:07:31.079Z,55.10
2018-08-19T11:08:31.062Z,53.39
2018-08-19T11:09:31.067Z,55.27
2018-08-19T11:10:31.066Z,54.46
2018-08-19T11:11:31.055Z,54.75
2018-08-19T11:12:31.021Z,55.05
2018-08-19T11:13:31.109Z,51.95
2018-08-19T11:14:30.999Z,52.74
2018-08-19T11:15:31.011Z,56.68
2018-08-19T11:16:31.051Z,51.03
2018-08-19T11:17:30.996Z,52.61
2018-08-19T11:18:30.988Z,51.32
2018-08-19T11:19:31.340Z,49.44
2018-08-19T11:20:30.968Z,49.93
2018-08-19T11:21:31.017Z,52.76
2018-08-19T11:22:31.005Z,51.28
2018-08-19T11:23:31.036Z,52.07
2018-08-19T11:24:31.003Z,51.37
2018-08-19T11:25:30.881Z,50.68
2018-08-19T11:26:30.929Z,53.46
2018-08-19T11:27:30.889Z,52.04
2018-08-19T11:28:30.861Z,51.62
2018-08-19T11:29:30.847Z,51.82
2018-08-19T11:30:30.836Z,51.10
2018-08-19T11:31:30.857Z,49.39
2018-08-19T11:32:30.811Z,49.37
2018-08-19T11:33:30.803Z,51.32
2018-08-19T11:34:30.791Z,49.59
2018-08-19T11:35:30.800Z,47.61
2018-08-19T11:36:30.807Z,49.25
2018-08-19T11:37:30.762Z,46.75
2018-08-19T11:38:30.749Z,46.04
2018-08-19T11:39:30.778Z,45.92
2018-08-19T11:40:30.729Z,44.91
2018-08-19T11:41:30.722Z,43.70
2018-08-19T11:42:30.737Z,43.33
2018-08-19T11:43:30.737Z,44.02
2018-08-19T11:44:30.706Z,43.51
2018-08-19T11:45:30.681Z,43.38
2018-08-19T11:46:30.696Z,45.14
2018-08-19T11:47:30.659Z,43.05
2018-08-19T11:48:30.661Z,43.01
2018-08-19T11:49:30.648Z,40.03
2018-08-19T11:50:30.712Z,41.19
2018-08-19T11:51:30.622Z,40.58
2018-08-19T11:52:30.635Z,42.82
2018-08-19T11:53:30.635Z,40.74
2018-08-19T11:54:30.602Z,38.82
2018-08-19T11:55:30.616Z,40.84
2018-08-19T11:56:30.579Z,42.57
2018-08-19T11:57:30.586Z,41.29
2018-08-19T11:58:30.556Z,40.13
2018-08-19T11:59:30.551Z,39.03
2018-08-19T12:00:30.555Z,40.31
2018-08-19T12:01:30.543Z,40.23
2018-08-19T12:02:30.574Z,41.11
2018-08-19T12:03:30.555Z,40.21
2018-08-19T12:04:30.524Z,39.13
2018-08-19T12:05:30.494Z,38.84
2018-08-19T12:06:30.487Z,39.34
2018-08-19T12:07:30.657Z,40.64
2018-08-19T12:08:30.473Z,39.48
2018-08-19T12:09:30.501Z,40.58
2018-08-19T12:10:30.446Z,40.58
2018-08-19T12:11:30.451Z,40.00
2018-08-19T12:12:30.512Z,42.73
2018-08-19T12:13:30.520Z,40.82
2018-08-19T12:14:30.464Z,39.54
2018-08-19T12:15:30.481Z,39.74
2018-08-19T12:16:30.406Z,39.26
2018-08-19T12:17:30.392Z,40.13
2018-08-19T12:18:30.393Z,39.62
2018-08-19T12:19:30.363Z,40.23
2018-08-19T12:20:30.391Z,42.57
2018-08-19T12:21:30.351Z,39.44
2018-08-19T12:22:30.359Z,40.01
2018-08-19T12:23:30.351Z,39.40
2018-08-19T12:24:30.321Z,39.31
2018-08-19T12:25:30.325Z,39.74
2018-08-19T12:26:30.308Z,42.94
2018-08-19T12:27:30.471Z,39.82
2018-08-19T12:28:30.307Z,41.09
2018-08-19T12:29:30.324Z,38.54
2018-08-19T12:30:30.260Z,39.15
2018-08-19T12:31:30.250Z,39.15
2018-08-19T12:32:30.250Z,38.15
2018-08-19T12:33:30.266Z,38.50
2018-08-19T12:34:30.229Z,37.03
2018-08-19T12:35:30.219Z,39.88
2018-08-19T12:36:30.256Z,38.78
2018-08-19T12:37:30.297Z,37.30
2018-08-19T12:38:30.188Z,39.19
2018-08-19T12:39:30.202Z,39.78
2018-08-19T12:40:30.182Z,37.40
2018-08-19T12:41:30.178Z,39.15
2018-08-19T12:42:30.148Z,38.64
2018-08-19T12:43:30.135Z,38.10
2018-08-19T12:44:30.167Z,37.00
2018-08-19T12:45:30.157Z,36.00
2018-08-19T12:46:30.114Z,34.74
2018-08-19T12:47:30.120Z,35.52
2018-08-19T12:48:30.090Z,36.06
2018-08-19T12:49:30.089Z,39.17
2018-08-19T12:50:30.100Z,34.83
2018-08-19T12:51:30.094Z,34.65
2018-08-19T12:52:30.053Z,34.77